createdAt,value
2019-04-16T00:00:18.651Z,1013.1
2019-04-16T00:01:31.823Z,1013
2019-04-16T00:02:46.003Z,1013.1
2019-04-16T00:04:00.197Z,1013
2019-04-16T00:05:14.430Z,1013.1
2019-04-16T00:06:28.644Z,1013.1
2019-04-16T00:07:42.865Z,1013
2019-04-16T00:08:57.020Z,1013
2019-04-16T00:10:11.153Z,1013
2019-04-16T00:11:25.343Z,1013
2019-04-16T00:12:39.932Z,1013
2019-04-16T00:13:53.686Z,1013
2019-04-16T00:15:07.890Z,1013
2019-04-16T00:16:22.094Z,1012.9
2019-04-16T00:17:36.306Z,1012.9
2019-04-16T00:18:50.519Z,1013
2019-04-16T00:20:04.620Z,1012.9
2019-04-16T00:22:33.074Z,1012.9
2019-04-16T00:23:48.517Z,1012.9
2019-04-16T00:25:01.417Z,1012.9
2019-04-16T00:26:15.599Z,1012.9
2019-04-16T00:27:29.954Z,1012.8
2019-04-16T00:28:43.899Z,1012.8
2019-04-16T00:29:58.091Z,1012.7
2019-04-16T00:31:12.263Z,1012.7
2019-04-16T00:32:26.571Z,1012.8
2019-04-16T00:33:40.662Z,1012.8
2019-04-16T00:34:54.853Z,1012.8
2019-04-16T00:36:09.179Z,1012.8
2019-04-16T00:37:23.183Z,1012.8
2019-04-16T00:38:37.394Z,1012.8
2019-04-16T00:39:51.591Z,1012.8
2019-04-16T00:41:05.853Z,1012.8
2019-04-16T00:42:19.929Z,1012.7
2019-04-16T00:43:34.107Z,1012.8
2019-04-16T00:44:48.307Z,1012.7
2019-04-16T00:47:16.673Z,1012.8
2019-04-16T00:48:30.853Z,1012.8
2019-04-16T00:49:45.148Z,1012.8
2019-04-16T00:50:59.227Z,1012.8
2019-04-16T00:52:13.412Z,1012.8
2019-04-16T00:53:27.589Z,1012.8
2019-04-16T00:54:41.881Z,1012.8
2019-04-16T00:55:55.979Z,1012.8
2019-04-16T00:57:10.151Z,1012.8
2019-04-16T00:58:24.370Z,1012.8
2019-04-16T00:59:38.574Z,1012.7
2019-04-16T01:00:52.712Z,1012.7
2019-04-16T01:02:06.899Z,1012.7
2019-04-16T01:03:21.280Z,1012.8
2019-04-16T01:04:35.435Z,1012.8
2019-04-16T01:05:49.451Z,1012.8
2019-04-16T01:07:05.283Z,1012.7
2019-04-16T01:08:17.804Z,1012.7
2019-04-16T01:09:32.000Z,1012.7
2019-04-16T01:12:00.367Z,1012.7
2019-04-16T01:13:14.566Z,1012.7
2019-04-16T01:14:28.824Z,1012.6
2019-04-16T01:15:42.947Z,1012.7
2019-04-16T01:16:57.212Z,1012.6
2019-04-16T01:18:11.399Z,1012.7
2019-04-16T01:19:25.584Z,1012.6
2019-04-16T01:20:39.697Z,1012.5
2019-04-16T01:21:53.886Z,1012.6
2019-04-16T01:23:08.074Z,1012.6
2019-04-16T01:24:22.261Z,1012.6
2019-04-16T01:25:36.543Z,1012.5
2019-04-16T01:26:50.708Z,1012.5
2019-04-16T01:28:04.871Z,1012.5
2019-04-16T01:29:19.011Z,1012.5
2019-04-16T01:30:33.311Z,1012.5
2019-04-16T01:31:47.464Z,1012.5
2019-04-16T01:33:01.645Z,1012.5
2019-04-16T01:34:15.881Z,1012.5
2019-04-16T01:35:29.986Z,1012.5
2019-04-16T01:36:44.156Z,1012.6
2019-04-16T01:37:58.331Z,1012.5
2019-04-16T01:39:12.533Z,1012.5
2019-04-16T01:40:26.874Z,1012.4
2019-04-16T01:41:41.001Z,1012.5
2019-04-16T01:42:55.205Z,1012.5
2019-04-16T01:44:09.293Z,1012.5
2019-04-16T01:45:23.476Z,1012.5
2019-04-16T01:46:37.678Z,1012.5
2019-04-16T01:47:51.954Z,1012.5
2019-04-16T01:49:06.071Z,1012.5
2019-04-16T01:50:20.346Z,1012.5
2019-04-16T01:51:34.529Z,1012.5
2019-04-16T01:52:48.690Z,1012.5
2019-04-16T01:54:02.851Z,1012.5
2019-04-16T01:55:17.023Z,1012.5
2019-04-16T01:56:31.312Z,1012.4
2019-04-16T01:57:45.603Z,1012.4
2019-04-16T01:58:59.629Z,1012.4
2019-04-16T02:01:27.998Z,1012.4
2019-04-16T02:02:42.315Z,1012.4
2019-04-16T02:03:56.435Z,1012.3
2019-04-16T02:05:10.710Z,1012.4
2019-04-16T02:06:24.797Z,1012.4
2019-04-16T02:07:39.018Z,1012.3
2019-04-16T02:08:53.161Z,1012.4
2019-04-16T02:10:07.381Z,1012.4
2019-04-16T02:11:21.849Z,1012.3
2019-04-16T02:12:35.766Z,1012.3
2019-04-16T02:13:50.020Z,1012.4
2019-04-16T02:15:04.264Z,1012.4
2019-04-16T02:16:18.726Z,1012.3
2019-04-16T02:17:32.622Z,1012.3
2019-04-16T02:18:46.889Z,1012.3
2019-04-16T02:20:00.945Z,1012.4
2019-04-16T02:21:15.140Z,1012.3
2019-04-16T02:22:29.323Z,1012.4
2019-04-16T02:23:43.635Z,1012.2
2019-04-16T02:24:57.871Z,1012.3
2019-04-16T02:26:12.092Z,1012.4
2019-04-16T02:27:26.114Z,1012.2
2019-04-16T02:28:40.336Z,1012.3
2019-04-16T02:29:54.514Z,1012.3
2019-04-16T02:31:08.801Z,1012.3
2019-04-16T02:33:37.093Z,1012.3
2019-04-16T02:34:51.350Z,1012.3
2019-04-16T02:36:05.619Z,1012.3
2019-04-16T02:37:19.723Z,1012.3
2019-04-16T02:38:33.972Z,1012.2
2019-04-16T02:39:48.084Z,1012.3
2019-04-16T02:41:02.277Z,1012.2
2019-04-16T02:42:16.432Z,1012.2
2019-04-16T02:43:30.659Z,1012.1
2019-04-16T02:44:44.820Z,1012.2
2019-04-16T02:45:59.002Z,1012.2
2019-04-16T02:47:13.297Z,1012.2
2019-04-16T02:48:27.509Z,1012.2
2019-04-16T02:50:55.824Z,1012.1
2019-04-16T02:52:10.155Z,1012.1
2019-04-16T02:53:24.208Z,1012.1
2019-04-16T02:54:38.360Z,1012.1
2019-04-16T02:55:52.557Z,1012.1
2019-04-16T02:57:06.772Z,1012.1
2019-04-16T02:58:20.959Z,1012.1
2019-04-16T02:59:35.204Z,1012.1
2019-04-16T03:00:49.360Z,1012.1
2019-04-16T03:02:03.507Z,1012
2019-04-16T03:03:17.685Z,1012.1
2019-04-16T03:04:31.905Z,1012.1
2019-04-16T03:05:46.107Z,1012
2019-04-16T03:07:00.289Z,1011.9
2019-04-16T03:08:14.591Z,1012
2019-04-16T03:09:28.744Z,1011.9
2019-04-16T03:10:42.864Z,1012
2019-04-16T03:11:57.074Z,1011.9
2019-04-16T03:13:11.275Z,1011.9
2019-04-16T03:14:25.502Z,1011.9
2019-04-16T03:15:39.702Z,1011.9
2019-04-16T03:16:53.859Z,1011.9
2019-04-16T03:18:08.111Z,1011.9
2019-04-16T03:19:22.315Z,1011.8
2019-04-16T03:20:36.548Z,1011.9
2019-04-16T03:21:50.785Z,1011.8
2019-04-16T03:23:04.969Z,1011.8
2019-04-16T03:24:19.080Z,1011.9
2019-04-16T03:25:33.331Z,1011.9
2019-04-16T03:28:02.828Z,1011.9
2019-04-16T03:29:15.912Z,1011.9
2019-04-16T03:30:30.118Z,1011.9
2019-04-16T03:31:44.293Z,1011.9
2019-04-16T03:32:58.501Z,1011.8
2019-04-16T03:34:12.716Z,1011.9
2019-04-16T03:35:26.961Z,1011.8
2019-04-16T03:36:41.157Z,1011.8
2019-04-16T03:37:55.268Z,1011.8
2019-04-16T03:40:23.774Z,1011.7
2019-04-16T03:41:37.876Z,1011.7
2019-04-16T03:42:52.067Z,1011.7
2019-04-16T03:44:06.355Z,1011.7
2019-04-16T03:45:20.486Z,1011.7
2019-04-16T03:46:36.850Z,1011.7
2019-04-16T03:47:49.178Z,1011.7
2019-04-16T03:49:03.059Z,1011.7
2019-04-16T03:50:17.297Z,1011.7
2019-04-16T03:51:31.455Z,1011.7
2019-04-16T03:52:45.657Z,1011.8
2019-04-16T03:53:59.837Z,1011.7
2019-04-16T03:55:14.089Z,1011.7
2019-04-16T03:56:28.271Z,1011.7
2019-04-16T03:57:42.449Z,1011.6
2019-04-16T03:58:56.750Z,1011.7
2019-04-16T04:00:10.867Z,1011.6
2019-04-16T04:01:25.098Z,1011.6
2019-04-16T04:02:39.332Z,1011.6
2019-04-16T04:03:53.529Z,1011.6
2019-04-16T04:05:07.660Z,1011.6
2019-04-16T04:06:21.835Z,1011.7
2019-04-16T04:07:36.153Z,1011.6
2019-04-16T04:08:50.362Z,1011.6
2019-04-16T04:10:04.458Z,1011.6
2019-04-16T04:11:18.700Z,1011.6
2019-04-16T04:12:36.183Z,1011.6
2019-04-16T04:13:47.080Z,1011.6
2019-04-16T04:15:01.277Z,1011.6
2019-04-16T04:17:29.798Z,1011.6
2019-04-16T04:18:44.016Z,1011.6
2019-04-16T04:19:58.141Z,1011.6
2019-04-16T04:21:12.316Z,1011.6
2019-04-16T04:22:26.523Z,1011.7
2019-04-16T04:23:40.705Z,1011.7
2019-04-16T04:26:09.181Z,1011.7
2019-04-16T04:27:23.310Z,1011.7
2019-04-16T04:29:51.786Z,1011.6
2019-04-16T04:31:05.971Z,1011.7
2019-04-16T04:32:20.441Z,1011.6
2019-04-16T04:33:34.558Z,1011.7
2019-04-16T04:34:48.657Z,1011.6
2019-04-16T04:37:16.954Z,1011.7
2019-04-16T04:38:31.162Z,1011.6
2019-04-16T04:39:45.493Z,1011.6
2019-04-16T04:40:59.704Z,1011.7
2019-04-16T04:42:13.781Z,1011.7
2019-04-16T04:43:27.979Z,1011.7
2019-04-16T04:44:42.233Z,1011.7
2019-04-16T04:45:56.430Z,1011.6
2019-04-16T04:47:10.560Z,1011.7
2019-04-16T04:48:24.988Z,1011.6
2019-04-16T04:49:38.995Z,1011.6
2019-04-16T04:50:53.158Z,1011.6
2019-04-16T04:52:07.369Z,1011.7
2019-04-16T04:53:21.660Z,1011.6
2019-04-16T04:54:35.807Z,1011.6
2019-04-16T04:55:50.012Z,1011.6
2019-04-16T04:57:04.159Z,1011.6
2019-04-16T04:58:18.361Z,1011.6
2019-04-16T04:59:32.575Z,1011.6
2019-04-16T05:00:46.763Z,1011.6
2019-04-16T05:02:00.979Z,1011.6
2019-04-16T05:03:15.308Z,1011.6
2019-04-16T05:04:29.347Z,1011.7
2019-04-16T05:05:43.554Z,1011.7
2019-04-16T05:06:57.744Z,1011.7
2019-04-16T05:08:11.943Z,1011.7
2019-04-16T05:09:26.277Z,1011.7
2019-04-16T05:10:40.483Z,1011.7
2019-04-16T05:11:54.852Z,1011.7
2019-04-16T05:13:08.821Z,1011.7
2019-04-16T05:14:23.009Z,1011.7
2019-04-16T05:15:37.160Z,1011.6
2019-04-16T05:16:51.450Z,1011.6
2019-04-16T05:18:05.758Z,1011.6
2019-04-16T05:19:19.826Z,1011.6
2019-04-16T05:20:33.912Z,1011.6
2019-04-16T05:21:48.136Z,1011.6
2019-04-16T05:23:02.302Z,1011.6
2019-04-16T05:24:16.503Z,1011.6
2019-04-16T05:25:30.722Z,1011.6
2019-04-16T05:26:44.903Z,1011.7
2019-04-16T05:27:59.125Z,1011.6
2019-04-16T05:29:13.808Z,1011.6
2019-04-16T05:30:27.671Z,1011.6
2019-04-16T05:31:41.777Z,1011.7
2019-04-16T05:32:55.905Z,1011.6
2019-04-16T05:34:10.088Z,1011.6
2019-04-16T05:35:24.256Z,1011.7
2019-04-16T05:36:41.137Z,1011.6
2019-04-16T05:37:52.647Z,1011.7
2019-04-16T05:39:06.857Z,1011.6
2019-04-16T05:40:21.008Z,1011.6
2019-04-16T05:41:35.268Z,1011.7
2019-04-16T05:42:49.393Z,1011.6
2019-04-16T05:44:03.727Z,1011.6
2019-04-16T05:45:17.719Z,1011.7
2019-04-16T05:46:31.899Z,1011.6
2019-04-16T05:47:46.087Z,1011.7
2019-04-16T05:49:00.241Z,1011.7
2019-04-16T05:50:14.425Z,1011.7
2019-04-16T05:51:28.606Z,1011.7
2019-04-16T05:52:42.766Z,1011.7
2019-04-16T05:53:57.085Z,1011.7
2019-04-16T05:55:11.118Z,1011.7
2019-04-16T05:56:25.383Z,1011.7
2019-04-16T05:57:39.509Z,1011.7
2019-04-16T05:58:53.638Z,1011.7
2019-04-16T06:00:07.854Z,1011.6
2019-04-16T06:01:21.981Z,1011.6
2019-04-16T06:02:36.876Z,1011.6
2019-04-16T06:03:50.389Z,1011.6
2019-04-16T06:05:04.569Z,1011.6
2019-04-16T06:06:18.663Z,1011.5
2019-04-16T06:07:32.836Z,1011.6
2019-04-16T06:08:47.082Z,1011.5
2019-04-16T06:10:01.157Z,1011.6
2019-04-16T06:11:15.367Z,1011.6
2019-04-16T06:12:29.499Z,1011.6
2019-04-16T06:13:43.648Z,1011.4
2019-04-16T06:14:57.884Z,1011.5
2019-04-16T06:16:11.969Z,1011.5
2019-04-16T06:17:26.152Z,1011.5
2019-04-16T06:18:40.391Z,1011.5
2019-04-16T06:19:54.466Z,1011.5
2019-04-16T06:21:08.623Z,1011.5
2019-04-16T06:22:22.848Z,1011.6
2019-04-16T06:23:36.982Z,1011.5
2019-04-16T06:24:51.111Z,1011.5
2019-04-16T06:26:05.435Z,1011.5
2019-04-16T06:27:19.429Z,1011.5
2019-04-16T06:28:33.649Z,1011.4
2019-04-16T06:29:48.794Z,1011.5
2019-04-16T06:31:02.410Z,1011.4
2019-04-16T06:32:16.253Z,1011.4
2019-04-16T06:33:30.321Z,1011.4
2019-04-16T06:34:44.375Z,1011.5
2019-04-16T06:35:58.527Z,1011.5
2019-04-16T06:37:12.722Z,1011.4
2019-04-16T06:38:26.840Z,1011.4
2019-04-16T06:39:41.192Z,1011.4
2019-04-16T06:40:55.149Z,1011.5
2019-04-16T06:42:09.391Z,1011.4
2019-04-16T06:43:23.498Z,1011.5
2019-04-16T06:44:37.623Z,1011.4
2019-04-16T06:45:51.773Z,1011.5
2019-04-16T06:47:05.917Z,1011.4
2019-04-16T06:48:20.621Z,1011.4
2019-04-16T06:49:34.229Z,1011.4
2019-04-16T06:50:48.355Z,1011.5
2019-04-16T06:52:02.540Z,1011.4
2019-04-16T06:53:16.657Z,1011.4
2019-04-16T06:54:30.807Z,1011.4
2019-04-16T06:55:44.943Z,1011.4
2019-04-16T06:58:13.251Z,1011.3
2019-04-16T06:59:27.422Z,1011.4
2019-04-16T07:00:41.511Z,1011.3
2019-04-16T07:01:55.681Z,1011.3
2019-04-16T07:03:09.790Z,1011.3
2019-04-16T07:04:23.935Z,1011.4
2019-04-16T07:05:38.138Z,1011.3
2019-04-16T07:06:52.401Z,1011.2
2019-04-16T07:08:06.484Z,1011.3
2019-04-16T07:09:20.582Z,1011.2
2019-04-16T07:10:34.661Z,1011.2
2019-04-16T07:11:48.786Z,1011.2
2019-04-16T07:13:02.944Z,1011.2
2019-04-16T07:14:17.109Z,1011.3
2019-04-16T07:15:31.279Z,1011.3
2019-04-16T07:16:45.363Z,1011.2
2019-04-16T07:17:59.746Z,1011.2
2019-04-16T07:19:13.543Z,1011.2
2019-04-16T07:20:27.681Z,1011.3
2019-04-16T07:21:41.894Z,1011.3
2019-04-16T07:22:56.032Z,1011.3
2019-04-16T07:24:10.065Z,1011.2
2019-04-16T07:25:24.197Z,1011.2
2019-04-16T07:26:38.340Z,1011.3
2019-04-16T07:27:52.450Z,1011.3
2019-04-16T07:29:06.549Z,1011.2
2019-04-16T07:30:20.676Z,1011.3
2019-04-16T07:31:34.890Z,1011.2
2019-04-16T07:32:48.893Z,1011.3
2019-04-16T07:34:03.012Z,1011.3
2019-04-16T07:35:17.141Z,1011.2
2019-04-16T07:36:31.877Z,1011.2
2019-04-16T07:37:45.412Z,1011.3
2019-04-16T07:38:59.487Z,1011.2
2019-04-16T07:40:13.628Z,1011.3
2019-04-16T07:41:27.790Z,1011.2
2019-04-16T07:42:41.865Z,1011.2
2019-04-16T07:43:56.057Z,1011.2
2019-04-16T07:45:10.120Z,1011.2
2019-04-16T07:46:24.203Z,1011.2
2019-04-16T07:47:38.301Z,1011.2
2019-04-16T07:48:52.398Z,1011.1
2019-04-16T07:50:06.534Z,1011.2
2019-04-16T07:51:20.633Z,1011.2
2019-04-16T07:52:34.903Z,1011.1
2019-04-16T07:53:48.841Z,1011.2
2019-04-16T07:55:02.961Z,1011.2
2019-04-16T07:56:17.051Z,1011.1
2019-04-16T07:57:31.261Z,1011.2
2019-04-16T07:58:45.481Z,1011.1
2019-04-16T07:59:59.392Z,1011.2
2019-04-16T08:01:13.529Z,1011.1
2019-04-16T08:02:27.669Z,1011.1
2019-04-16T08:03:41.805Z,1011.1
2019-04-16T08:04:56.015Z,1011.1
2019-04-16T08:06:10.251Z,1011.2
2019-04-16T08:07:24.101Z,1011.1
2019-04-16T08:08:38.299Z,1011.1
2019-04-16T08:09:52.285Z,1011.1
2019-04-16T08:12:20.605Z,1011.1
2019-04-16T08:13:34.577Z,1011.1
2019-04-16T08:14:48.736Z,1011.1
2019-04-16T08:16:02.792Z,1011.1
2019-04-16T08:17:16.894Z,1011.1
2019-04-16T08:18:30.980Z,1011
2019-04-16T08:19:45.179Z,1011
2019-04-16T08:20:59.255Z,1011.1
2019-04-16T08:22:13.426Z,1011.1
2019-04-16T08:23:27.484Z,1011.1
2019-04-16T08:24:41.472Z,1011
2019-04-16T08:25:55.735Z,1011.1
2019-04-16T08:27:09.728Z,1011
2019-04-16T08:28:24.026Z,1011
2019-04-16T08:29:37.893Z,1011
2019-04-16T08:30:51.995Z,1010.9
2019-04-16T08:32:06.467Z,1011
2019-04-16T08:33:20.254Z,1011
2019-04-16T08:34:34.347Z,1010.9
2019-04-16T08:35:48.353Z,1011
2019-04-16T08:37:02.571Z,1011
2019-04-16T08:38:19.398Z,1011
2019-04-16T08:39:32.346Z,1010.9
2019-04-16T08:40:44.830Z,1010.9
2019-04-16T08:41:58.820Z,1010.9
2019-04-16T08:43:12.929Z,1010.9
2019-04-16T08:45:41.107Z,1010.9
2019-04-16T08:46:55.302Z,1010.8
2019-04-16T08:48:09.323Z,1010.9
2019-04-16T08:49:23.462Z,1010.8
2019-04-16T08:50:37.463Z,1010.9
2019-04-16T08:51:51.579Z,1010.8
2019-04-16T08:53:05.657Z,1010.9
2019-04-16T08:54:19.714Z,1010.8
2019-04-16T08:55:33.832Z,1010.8
2019-04-16T08:56:47.908Z,1010.8
2019-04-16T08:58:01.969Z,1010.7
2019-04-16T08:59:16.118Z,1010.8
2019-04-16T09:00:30.132Z,1010.8
2019-04-16T09:01:44.210Z,1010.8
2019-04-16T09:02:58.322Z,1010.8
2019-04-16T09:04:12.443Z,1010.8
2019-04-16T09:05:26.461Z,1010.8
2019-04-16T09:06:40.564Z,1010.8
2019-04-16T09:07:54.585Z,1010.7
2019-04-16T09:09:08.937Z,1010.8
2019-04-16T09:10:22.931Z,1010.7
2019-04-16T09:11:36.789Z,1010.8
2019-04-16T09:12:50.993Z,1010.7
2019-04-16T09:14:04.997Z,1010.7
2019-04-16T09:15:18.962Z,1010.7
2019-04-16T09:16:33.017Z,1010.7
2019-04-16T09:17:47.072Z,1010.8
2019-04-16T09:19:01.127Z,1010.7
2019-04-16T09:20:15.207Z,1010.7
2019-04-16T09:21:29.232Z,1010.7
2019-04-16T09:22:43.305Z,1010.7
2019-04-16T09:23:57.389Z,1010.7
2019-04-16T09:25:11.425Z,1010.8
2019-04-16T09:26:25.468Z,1010.8
2019-04-16T09:27:39.672Z,1010.8
2019-04-16T09:28:53.749Z,1010.8
2019-04-16T09:30:07.707Z,1010.8
2019-04-16T09:31:21.732Z,1010.8
2019-04-16T09:32:35.744Z,1010.8
2019-04-16T09:33:49.810Z,1010.7
2019-04-16T09:35:03.928Z,1010.7
2019-04-16T09:36:18.040Z,1010.7
2019-04-16T09:37:31.954Z,1010.8
2019-04-16T09:38:46.097Z,1010.8
2019-04-16T09:40:00.123Z,1010.8
2019-04-16T09:41:14.126Z,1010.8
2019-04-16T09:42:28.138Z,1010.8
2019-04-16T09:43:42.280Z,1010.8
2019-04-16T09:44:56.302Z,1010.8
2019-04-16T09:46:10.326Z,1010.9
2019-04-16T09:47:24.363Z,1010.8
2019-04-16T09:48:38.473Z,1010.8
2019-04-16T09:49:52.489Z,1010.7
2019-04-16T09:51:06.685Z,1010.7
2019-04-16T09:52:21.032Z,1010.8
2019-04-16T09:53:34.791Z,1010.7
2019-04-16T09:54:48.688Z,1010.8
2019-04-16T09:56:02.767Z,1010.8
2019-04-16T09:57:16.873Z,1010.8
2019-04-16T09:58:30.889Z,1010.8
2019-04-16T09:59:44.986Z,1010.8
2019-04-16T10:00:58.965Z,1010.8
2019-04-16T10:03:27.107Z,1010.7
2019-04-16T10:04:41.229Z,1010.7
2019-04-16T10:05:55.201Z,1010.7
2019-04-16T10:07:09.239Z,1010.7
2019-04-16T10:08:23.451Z,1010.7
2019-04-16T10:09:37.362Z,1010.7
2019-04-16T10:10:51.446Z,1010.8
2019-04-16T10:12:05.600Z,1010.8
2019-04-16T10:13:19.520Z,1010.7
2019-04-16T10:15:47.631Z,1010.7
2019-04-16T10:17:01.659Z,1010.6
2019-04-16T10:18:15.767Z,1010.6
2019-04-16T10:19:29.808Z,1010.5
2019-04-16T10:20:43.827Z,1010.7
2019-04-16T10:21:57.872Z,1010.6
2019-04-16T10:23:11.906Z,1010.6
2019-04-16T10:24:25.956Z,1010.6
2019-04-16T10:25:40.010Z,1010.6
2019-04-16T10:26:54.100Z,1010.6
2019-04-16T10:28:08.162Z,1010.5
2019-04-16T10:29:22.409Z,1010.5
2019-04-16T10:30:36.173Z,1010.6
2019-04-16T10:31:50.374Z,1010.5
2019-04-16T10:33:04.250Z,1010.5
2019-04-16T10:34:18.309Z,1010.5
2019-04-16T10:35:32.351Z,1010.5
2019-04-16T10:36:46.617Z,1010.5
2019-04-16T10:38:00.447Z,1010.5
2019-04-16T10:39:14.464Z,1010.4
2019-04-16T10:40:28.526Z,1010.4
2019-04-16T10:41:42.674Z,1010.3
2019-04-16T10:42:56.599Z,1010.4
2019-04-16T10:44:10.621Z,1010.4
2019-04-16T10:45:24.687Z,1010.3
2019-04-16T10:46:38.705Z,1010.4
2019-04-16T10:47:52.841Z,1010.3
2019-04-16T10:49:07.023Z,1010.4
2019-04-16T10:50:20.906Z,1010.4
2019-04-16T10:51:34.933Z,1010.4
2019-04-16T10:52:48.893Z,1010.4
2019-04-16T10:54:06.124Z,1010.4
2019-04-16T10:55:16.967Z,1010.4
2019-04-16T10:56:31.027Z,1010.4
2019-04-16T10:57:45.169Z,1010.3
2019-04-16T10:58:59.055Z,1010.4
2019-04-16T11:00:13.115Z,1010.4
2019-04-16T11:01:27.120Z,1010.3
2019-04-16T11:02:41.153Z,1010.3
2019-04-16T11:03:55.238Z,1010.3
2019-04-16T11:05:09.208Z,1010.3
2019-04-16T11:06:23.242Z,1010.3
2019-04-16T11:07:37.271Z,1010.2
2019-04-16T11:08:51.365Z,1010.3
2019-04-16T11:10:05.375Z,1010.3
2019-04-16T11:11:19.469Z,1010.2
2019-04-16T11:12:33.568Z,1010.3
2019-04-16T11:13:47.455Z,1010.2
2019-04-16T11:15:01.595Z,1010.2
2019-04-16T11:16:15.528Z,1010.2
2019-04-16T11:17:29.575Z,1010.2
2019-04-16T11:18:43.868Z,1010.2
2019-04-16T11:19:57.748Z,1010.2
2019-04-16T11:21:11.845Z,1010.2
2019-04-16T11:22:25.719Z,1010.3
2019-04-16T11:23:39.809Z,1010.1
2019-04-16T11:24:53.888Z,1010.2
2019-04-16T11:26:12.896Z,1010.2
2019-04-16T11:27:22.312Z,1010.3
2019-04-16T11:28:36.034Z,1010.2
2019-04-16T11:29:50.047Z,1010.2
2019-04-16T11:31:04.078Z,1010.2
2019-04-16T11:32:18.174Z,1010.2
2019-04-16T11:33:32.220Z,1010.2
2019-04-16T11:34:46.225Z,1010.2
2019-04-16T11:36:00.281Z,1010.2
2019-04-16T11:37:14.367Z,1010.2
2019-04-16T11:38:28.395Z,1010.2
2019-04-16T11:39:42.425Z,1010.1
2019-04-16T11:40:56.472Z,1010.1
2019-04-16T11:42:10.637Z,1010.2
2019-04-16T11:43:24.588Z,1010.2
2019-04-16T11:44:38.757Z,1010.2
2019-04-16T11:45:52.727Z,1010.1
2019-04-16T11:47:06.753Z,1010.2
2019-04-16T11:48:20.843Z,1010.1
2019-04-16T11:49:34.969Z,1010.1
2019-04-16T11:50:48.965Z,1010.1
2019-04-16T11:52:03.152Z,1010.1
2019-04-16T11:53:17.028Z,1010.1
2019-04-16T11:54:31.083Z,1010.1
2019-04-16T11:55:45.359Z,1010.1
2019-04-16T11:56:59.290Z,1010.1
2019-04-16T11:58:13.274Z,1010.1
2019-04-16T11:59:32.709Z,1010.2
2019-04-16T12:00:41.379Z,1010.1
2019-04-16T12:01:55.458Z,1010.1
2019-04-16T12:03:09.532Z,1010.1
2019-04-16T12:04:23.575Z,1010.1
2019-04-16T12:05:37.600Z,1010
2019-04-16T12:06:52.821Z,1010.1
2019-04-16T12:08:05.848Z,1010.1
2019-04-16T12:09:19.751Z,1010.1
2019-04-16T12:10:33.869Z,1010.1
2019-04-16T12:11:47.834Z,1010.1
2019-04-16T12:13:01.968Z,1010.1
2019-04-16T12:14:15.950Z,1010.1
2019-04-16T12:15:30.866Z,1010.1
2019-04-16T12:16:44.053Z,1010.1
2019-04-16T12:18:00.514Z,1010.1
2019-04-16T12:19:13.457Z,1010.1
2019-04-16T12:20:28.044Z,1010.1
2019-04-16T12:21:40.678Z,1010.1
2019-04-16T12:22:54.339Z,1010.1
2019-04-16T12:24:08.740Z,1010.1
2019-04-16T12:25:22.572Z,1010
2019-04-16T12:26:36.684Z,1010
2019-04-16T12:27:50.626Z,1010
2019-04-16T12:29:04.668Z,1010
2019-04-16T12:30:18.768Z,1010
2019-04-16T12:31:32.769Z,1010.1
2019-04-16T12:32:46.796Z,1010
2019-04-16T12:34:00.865Z,1009.9
2019-04-16T12:35:14.915Z,1010
2019-04-16T12:36:29.016Z,1010
2019-04-16T12:37:43.097Z,1010
2019-04-16T12:39:01.846Z,1010
2019-04-16T12:40:11.132Z,1010
2019-04-16T12:41:25.196Z,1009.9
2019-04-16T12:42:39.265Z,1009.9
2019-04-16T12:43:53.301Z,1010
2019-04-16T12:45:07.417Z,1009.9
2019-04-16T12:46:21.573Z,1010
2019-04-16T12:47:35.656Z,1010
2019-04-16T12:48:49.565Z,1009.8
2019-04-16T12:50:03.898Z,1009.9
2019-04-16T12:51:17.700Z,1009.9
2019-04-16T12:52:31.728Z,1010
2019-04-16T12:53:45.783Z,1009.8
2019-04-16T12:55:00.013Z,1009.9
2019-04-16T12:56:13.987Z,1009.8
2019-04-16T12:57:28.058Z,1009.8
2019-04-16T12:58:42.093Z,1009.9
2019-04-16T12:59:56.085Z,1009.8
2019-04-16T13:01:10.173Z,1009.9
2019-04-16T13:02:24.237Z,1009.8
2019-04-16T13:03:38.274Z,1009.8
2019-04-16T13:04:52.339Z,1009.9
2019-04-16T13:06:06.832Z,1009.8
2019-04-16T13:07:20.461Z,1009.9
2019-04-16T13:08:34.574Z,1009.8
2019-04-16T13:09:48.706Z,1009.9
2019-04-16T13:11:02.811Z,1009.8
2019-04-16T13:12:16.873Z,1009.9
2019-04-16T13:13:30.822Z,1009.8
2019-04-16T13:14:45.012Z,1009.8
2019-04-16T13:15:58.926Z,1009.8
2019-04-16T13:17:13.032Z,1009.8
2019-04-16T13:18:32.255Z,1009.7
2019-04-16T13:19:41.148Z,1009.7
2019-04-16T13:20:55.250Z,1009.7
2019-04-16T13:22:09.330Z,1009.8
2019-04-16T13:23:23.362Z,1009.8
2019-04-16T13:24:37.451Z,1009.8
2019-04-16T13:25:51.735Z,1009.8
2019-04-16T13:27:05.484Z,1009.8
2019-04-16T13:28:19.533Z,1009.8
2019-04-16T13:29:33.632Z,1009.8
2019-04-16T13:30:47.642Z,1009.7
2019-04-16T13:32:01.801Z,1009.7
2019-04-16T13:33:15.853Z,1009.8
2019-04-16T13:34:29.863Z,1009.7
2019-04-16T13:35:43.870Z,1009.7
2019-04-16T13:36:57.990Z,1009.8
2019-04-16T13:38:12.094Z,1009.7
2019-04-16T13:39:26.062Z,1009.7
2019-04-16T13:41:54.167Z,1009.6
2019-04-16T13:43:08.388Z,1009.6
2019-04-16T13:44:22.330Z,1009.6
2019-04-16T13:45:36.417Z,1009.6
2019-04-16T13:46:50.421Z,1009.6
2019-04-16T13:48:04.583Z,1009.6
2019-04-16T13:49:18.557Z,1009.6
2019-04-16T13:50:32.762Z,1009.6
2019-04-16T13:51:46.717Z,1009.6
2019-04-16T13:53:02.048Z,1009.6
2019-04-16T13:54:14.838Z,1009.5
2019-04-16T13:55:28.844Z,1009.5
2019-04-16T13:56:42.910Z,1009.6
2019-04-16T13:57:57.014Z,1009.5
2019-04-16T13:59:11.125Z,1009.5
2019-04-16T14:00:25.048Z,1009.5
2019-04-16T14:01:39.112Z,1009.5
2019-04-16T14:02:53.156Z,1009.5
2019-04-16T14:04:07.243Z,1009.5
2019-04-16T14:05:21.358Z,1009.4
2019-04-16T14:06:35.477Z,1009.4
2019-04-16T14:07:49.400Z,1009.3
2019-04-16T14:09:03.469Z,1009.3
2019-04-16T14:10:17.608Z,1009.3
2019-04-16T14:11:31.584Z,1009.3
2019-04-16T14:12:45.751Z,1009.3
2019-04-16T14:13:59.737Z,1009.3
2019-04-16T14:15:13.843Z,1009.4
2019-04-16T14:16:27.953Z,1009.3
2019-04-16T14:17:42.067Z,1009.3
2019-04-16T14:18:56.004Z,1009.3
2019-04-16T14:20:10.178Z,1009.4
2019-04-16T14:21:24.151Z,1009.4
2019-04-16T14:22:38.223Z,1009.3
2019-04-16T14:23:52.427Z,1009.3
2019-04-16T14:25:06.839Z,1009.3
2019-04-16T14:26:20.470Z,1009.3
2019-04-16T14:27:34.490Z,1009.3
2019-04-16T14:28:48.610Z,1009.4
2019-04-16T14:30:02.652Z,1009.3
2019-04-16T14:31:16.766Z,1009.3
2019-04-16T14:32:30.801Z,1009.3
2019-04-16T14:33:44.872Z,1009.2
2019-04-16T14:34:59.051Z,1009.3
2019-04-16T14:36:13.032Z,1009.1
2019-04-16T14:37:27.117Z,1009.1
2019-04-16T14:38:41.206Z,1009.1
2019-04-16T14:39:55.257Z,1009.1
2019-04-16T14:41:09.354Z,1009
2019-04-16T14:42:23.440Z,1009.1
2019-04-16T14:43:37.501Z,1009
2019-04-16T14:44:51.742Z,1009.1
2019-04-16T14:46:05.672Z,1009
2019-04-16T14:47:19.797Z,1009
2019-04-16T14:48:33.805Z,1009
2019-04-16T14:49:47.912Z,1009.1
2019-04-16T14:51:01.937Z,1009.1
2019-04-16T14:52:16.057Z,1009.1
2019-04-16T14:53:30.098Z,1009.1
2019-04-16T14:54:44.181Z,1009
2019-04-16T14:55:58.253Z,1009
2019-04-16T14:57:12.334Z,1009.1
2019-04-16T14:58:26.397Z,1009
2019-04-16T14:59:40.478Z,1009.1
2019-04-16T15:00:54.554Z,1009.1
2019-04-16T15:02:08.619Z,1009
2019-04-16T15:03:22.703Z,1009
2019-04-16T15:04:36.774Z,1009.1
2019-04-16T15:05:50.853Z,1009
2019-04-16T15:07:08.848Z,1009.2
2019-04-16T15:08:19.162Z,1009.2
2019-04-16T15:09:33.175Z,1009.1
2019-04-16T15:10:47.195Z,1009
2019-04-16T15:12:01.277Z,1009
2019-04-16T15:13:15.382Z,1009.1
2019-04-16T15:14:29.665Z,1009.1
2019-04-16T15:15:43.580Z,1009
2019-04-16T15:16:57.640Z,1009
2019-04-16T15:18:11.737Z,1009
2019-04-16T15:19:25.812Z,1009
2019-04-16T15:20:39.884Z,1009
2019-04-16T15:21:53.971Z,1009
2019-04-16T15:23:08.080Z,1009
2019-04-16T15:24:22.349Z,1009
2019-04-16T15:25:36.269Z,1009
2019-04-16T15:26:50.412Z,1009
2019-04-16T15:28:04.542Z,1009
2019-04-16T15:29:18.524Z,1009
2019-04-16T15:30:32.599Z,1008.9
2019-04-16T15:31:46.704Z,1008.9
2019-04-16T15:33:00.777Z,1008.9
2019-04-16T15:34:14.855Z,1009
2019-04-16T15:35:28.927Z,1008.9
2019-04-16T15:36:43.332Z,1009
2019-04-16T15:37:57.102Z,1009
2019-04-16T15:39:11.234Z,1009
2019-04-16T15:40:25.279Z,1009
2019-04-16T15:41:39.503Z,1009
2019-04-16T15:42:53.487Z,1008.9
2019-04-16T15:44:07.539Z,1009
2019-04-16T15:45:21.825Z,1009
2019-04-16T15:46:35.775Z,1009
2019-04-16T15:47:49.829Z,1009
2019-04-16T15:49:03.897Z,1009
2019-04-16T15:50:18.029Z,1009
2019-04-16T15:51:32.046Z,1009
2019-04-16T15:52:46.169Z,1009